createdAt,value
2018-11-29T00:00:17.109Z,22.50
2018-11-29T00:02:45.413Z,22.37
2018-11-29T00:05:13.609Z,22.75
2018-11-29T00:07:41.999Z,23.47
2018-11-29T00:10:10.204Z,24.20
2018-11-29T00:12:38.433Z,22.95
2018-11-29T00:15:08.972Z,22.62
2018-11-29T00:17:37.965Z,20.12
2018-11-29T00:20:22.729Z,22.37
2018-11-29T00:22:51.374Z,21.85
2018-11-29T00:25:19.876Z,22.90
2018-11-29T00:27:48.314Z,23.30
2018-11-29T00:30:20.348Z,22.93
2018-11-29T00:32:48.866Z,21.52
2018-11-29T00:35:17.384Z,22.10
2018-11-29T00:37:45.676Z,23.10
2018-11-29T00:40:15.475Z,22.80
2018-11-29T00:42:43.755Z,23.30
2018-11-29T00:45:15.964Z,22.50
2018-11-29T00:47:44.828Z,23.67
2018-11-29T00:50:13.940Z,23.83
2018-11-29T00:52:43.937Z,25.88
2018-11-29T00:55:20.806Z,26.33
2018-11-29T00:57:49.019Z,27.80
2018-11-29T01:00:20.354Z,24.47
2018-11-29T01:02:48.733Z,22.40
2018-11-29T01:05:17.025Z,22.80
2018-11-29T01:07:45.253Z,24.18
2018-11-29T01:10:14.247Z,22.45
2018-11-29T01:12:42.502Z,24.67
2018-11-29T01:15:11.740Z,25.30
2018-11-29T01:17:39.940Z,24.37
2018-11-29T01:20:10.360Z,24.25
2018-11-29T01:22:38.591Z,24.10
2018-11-29T01:25:08.201Z,25.40
2018-11-29T01:27:36.414Z,23.83
2018-11-29T01:30:06.494Z,23.90
2018-11-29T01:32:34.718Z,26.07
2018-11-29T01:35:02.901Z,22.87
2018-11-29T01:37:31.084Z,22.67
2018-11-29T01:39:59.297Z,22.93
2018-11-29T01:42:27.496Z,22.13
2018-11-29T01:44:55.687Z,22.25
2018-11-29T01:47:23.894Z,21.80
2018-11-29T01:49:52.076Z,21.93
2018-11-29T01:52:20.283Z,24.30
2018-11-29T01:54:48.484Z,24.15
2018-11-29T01:57:16.681Z,25.85
2018-11-29T01:59:44.880Z,23.00
2018-11-29T02:02:13.107Z,24.85
2018-11-29T02:04:41.292Z,24.32
2018-11-29T02:07:09.497Z,23.70
2018-11-29T02:09:37.747Z,25.60
2018-11-29T02:12:05.968Z,23.62
2018-11-29T02:14:34.184Z,23.57
2018-11-29T02:17:02.400Z,24.87
2018-11-29T02:19:30.605Z,24.92
2018-11-29T02:21:58.800Z,25.37
2018-11-29T02:24:27.001Z,23.15
2018-11-29T02:26:55.213Z,24.18
2018-11-29T02:29:23.410Z,22.50
2018-11-29T02:31:51.599Z,23.42
2018-11-29T02:34:19.813Z,22.77
2018-11-29T02:36:48.000Z,22.65
2018-11-29T02:39:16.188Z,21.52
2018-11-29T02:41:44.398Z,21.12
2018-11-29T02:44:12.585Z,21.50
2018-11-29T02:46:40.793Z,22.98
2018-11-29T02:49:09.033Z,23.18
2018-11-29T02:51:37.212Z,23.92
2018-11-29T02:54:05.468Z,22.05
2018-11-29T02:56:33.684Z,23.47
2018-11-29T02:59:01.868Z,16.25
2018-11-29T03:01:30.056Z,15.85
2018-11-29T03:03:58.252Z,15.10
2018-11-29T03:06:26.430Z,16.42
2018-11-29T03:08:54.610Z,15.50
2018-11-29T03:11:22.790Z,15.72
2018-11-29T03:13:50.968Z,16.65
2018-11-29T03:16:19.139Z,14.78
2018-11-29T03:18:47.313Z,14.90
2018-11-29T03:21:15.484Z,15.80
2018-11-29T03:23:43.651Z,15.58
2018-11-29T03:26:11.824Z,15.72
2018-11-29T03:28:40.004Z,17.05
2018-11-29T03:31:08.149Z,17.87
2018-11-29T03:33:36.322Z,17.12
2018-11-29T03:36:04.649Z,18.23
2018-11-29T03:38:32.809Z,16.87
2018-11-29T03:41:01.393Z,16.02
2018-11-29T03:43:29.576Z,17.60
2018-11-29T03:45:57.756Z,17.40
2018-11-29T03:48:25.914Z,17.62
2018-11-29T03:50:54.083Z,18.27
2018-11-29T03:53:22.277Z,16.35
2018-11-29T03:55:50.457Z,17.02
2018-11-29T03:58:18.621Z,18.12
2018-11-29T04:00:46.794Z,18.87
2018-11-29T04:03:14.969Z,19.27
2018-11-29T04:05:43.125Z,17.12
2018-11-29T04:08:11.307Z,17.80
2018-11-29T04:10:39.468Z,16.90
2018-11-29T04:13:07.632Z,17.40
2018-11-29T04:15:35.856Z,16.48
2018-11-29T04:18:04.020Z,16.82
2018-11-29T04:20:32.201Z,15.45
2018-11-29T04:23:00.368Z,17.23
2018-11-29T04:25:28.533Z,15.55
2018-11-29T04:27:56.708Z,17.02
2018-11-29T04:30:24.887Z,16.97
2018-11-29T04:32:53.374Z,17.17
2018-11-29T04:35:21.241Z,16.70
2018-11-29T04:37:49.414Z,18.40
2018-11-29T04:40:17.625Z,16.05
2018-11-29T04:42:45.848Z,16.50
2018-11-29T04:45:17.637Z,16.75
2018-11-29T04:47:46.076Z,15.88
2018-11-29T04:50:14.900Z,17.20
2018-11-29T04:52:43.075Z,17.25
2018-11-29T04:55:11.245Z,16.27
2018-11-29T04:57:39.418Z,15.53
2018-11-29T05:00:12.420Z,16.85
2018-11-29T05:02:40.625Z,18.27
2018-11-29T05:05:09.172Z,16.97
2018-11-29T05:07:37.456Z,15.18
2018-11-29T05:10:07.165Z,15.63
2018-11-29T05:12:35.350Z,16.93
2018-11-29T05:15:03.608Z,16.87
2018-11-29T05:17:31.781Z,18.17
2018-11-29T05:19:59.978Z,16.70
2018-11-29T05:22:28.161Z,18.77
2018-11-29T05:24:56.354Z,16.40
2018-11-29T05:27:24.532Z,16.10
2018-11-29T05:29:52.717Z,14.28
2018-11-29T05:32:20.872Z,14.43
2018-11-29T05:34:49.042Z,14.45
2018-11-29T05:37:17.220Z,16.65
2018-11-29T05:39:45.397Z,15.65
2018-11-29T05:42:13.564Z,16.50
2018-11-29T05:44:41.773Z,16.50
2018-11-29T05:47:09.954Z,17.67
2018-11-29T05:49:38.142Z,16.17
2018-11-29T05:52:06.313Z,17.10
2018-11-29T05:54:34.477Z,15.98
2018-11-29T05:57:02.648Z,15.95
2018-11-29T05:59:30.808Z,15.08
2018-11-29T06:01:59.001Z,16.87
2018-11-29T06:04:27.180Z,16.32
2018-11-29T06:06:55.384Z,16.55
2018-11-29T06:09:23.564Z,16.93
2018-11-29T06:11:51.744Z,17.35
2018-11-29T06:14:19.945Z,19.90
2018-11-29T06:16:48.169Z,20.70
2018-11-29T06:19:16.401Z,27.62
2018-11-29T06:21:44.600Z,25.08
2018-11-29T06:24:13.654Z,20.72
2018-11-29T06:26:40.997Z,18.48
2018-11-29T06:29:09.181Z,16.75
2018-11-29T06:31:37.378Z,15.68
2018-11-29T06:34:06.068Z,15.65
2018-11-29T06:36:34.265Z,15.95
2018-11-29T06:39:02.469Z,15.08
2018-11-29T06:41:30.651Z,16.07
2018-11-29T06:43:58.817Z,14.70
2018-11-29T06:46:27.009Z,16.42
2018-11-29T06:48:55.192Z,15.48
2018-11-29T06:51:23.369Z,14.45
2018-11-29T06:53:56.921Z,17.27
2018-11-29T06:56:25.129Z,14.13
2018-11-29T06:58:53.333Z,16.05
2018-11-29T07:01:21.521Z,15.75
2018-11-29T07:03:49.697Z,13.80
2018-11-29T07:06:17.924Z,15.72
2018-11-29T07:08:46.125Z,14.98
2018-11-29T07:11:14.350Z,15.28
2018-11-29T07:13:42.528Z,16.60
2018-11-29T07:16:10.714Z,13.18
2018-11-29T07:18:38.908Z,15.45
2018-11-29T07:21:18.430Z,13.38
2018-11-29T07:23:46.609Z,14.85
2018-11-29T07:26:14.802Z,13.72
2018-11-29T07:28:43.006Z,12.33
2018-11-29T07:31:11.190Z,14.28
2018-11-29T07:33:39.386Z,13.75
2018-11-29T07:36:07.561Z,11.97
2018-11-29T07:38:35.761Z,13.30
2018-11-29T07:41:03.942Z,12.28
2018-11-29T07:43:32.158Z,11.90
2018-11-29T08:10:36.761Z,10.23
2018-11-29T08:13:05.427Z,10.45
2018-11-29T08:15:33.658Z,11.88
2018-11-29T08:18:01.867Z,11.60
2018-11-29T08:20:30.077Z,12.98
2018-11-29T08:22:58.302Z,12.50
2018-11-29T08:25:26.553Z,12.10
2018-11-29T08:27:54.782Z,11.70
2018-11-29T08:30:22.984Z,11.95
2018-11-29T08:32:51.178Z,11.90
2018-11-29T08:35:19.358Z,11.68
2018-11-29T08:37:47.733Z,12.40
2018-11-29T08:40:20.753Z,12.45
2018-11-29T08:42:49.184Z,10.88
2018-11-29T08:45:17.372Z,10.38
2018-11-29T08:47:45.591Z,10.20
2018-11-29T08:50:14.488Z,10.80
2018-11-29T08:52:43.585Z,10.50
2018-11-29T08:55:19.345Z,9.23
2018-11-29T08:57:48.619Z,9.95
2018-11-29T09:00:19.671Z,9.00
2018-11-29T09:02:47.905Z,9.65
2018-11-29T09:05:16.164Z,8.88
2018-11-29T09:07:45.306Z,8.35
2018-11-29T09:10:16.772Z,8.60
2018-11-29T09:12:44.950Z,9.70
2018-11-29T09:15:14.759Z,9.93
2018-11-29T09:17:49.445Z,9.18
2018-11-29T09:20:19.496Z,8.60
2018-11-29T09:22:47.671Z,8.10
2018-11-29T09:25:17.741Z,7.65
2018-11-29T09:27:45.915Z,8.40
2018-11-29T09:30:17.935Z,8.40
2018-11-29T09:32:46.857Z,7.65
2018-11-29T09:35:15.106Z,8.43
2018-11-29T09:37:43.295Z,8.35
2018-11-29T09:40:16.054Z,7.60
2018-11-29T09:42:44.329Z,7.80
2018-11-29T09:45:13.582Z,7.92
2018-11-29T09:47:41.817Z,7.90
2018-11-29T09:50:11.227Z,7.20
2018-11-29T09:52:39.945Z,7.90
2018-11-29T09:55:09.397Z,8.23
2018-11-29T09:57:38.383Z,7.72
2018-11-29T10:00:27.794Z,7.40
2018-11-29T10:02:54.852Z,7.53
2018-11-29T10:05:23.064Z,7.90
2018-11-29T10:07:51.297Z,7.95
2018-11-29T10:10:19.483Z,8.48
2018-11-29T10:12:47.682Z,7.70
2018-11-29T10:15:15.929Z,8.48
2018-11-29T10:17:44.113Z,7.25
2018-11-29T10:20:12.754Z,7.05
2018-11-29T10:22:41.833Z,9.00
2018-11-29T10:25:13.197Z,7.80
2018-11-29T10:27:42.598Z,8.03
2018-11-29T10:30:30.665Z,8.70
2018-11-29T10:32:58.855Z,8.08
2018-11-29T10:35:27.144Z,7.08
2018-11-29T10:37:55.321Z,5.95
2018-11-29T10:40:23.529Z,7.25
2018-11-29T10:42:51.712Z,6.05
2018-11-29T10:45:20.483Z,5.45
2018-11-29T10:47:52.556Z,6.10
2018-11-29T10:50:18.407Z,6.70
2018-11-29T10:52:46.584Z,8.13
2018-11-29T10:55:15.824Z,8.33
2018-11-29T10:57:44.219Z,8.83
2018-11-29T11:00:24.975Z,8.95
2018-11-29T11:02:59.430Z,8.23
2018-11-29T11:05:27.644Z,8.33
2018-11-29T11:07:55.849Z,7.55
2018-11-29T11:10:24.039Z,7.55
2018-11-29T11:12:52.221Z,7.78
2018-11-29T11:15:20.431Z,7.92
2018-11-29T11:17:48.627Z,8.07
2018-11-29T11:20:16.827Z,8.58
2018-11-29T11:22:45.014Z,8.38
2018-11-29T11:25:13.335Z,7.78
2018-11-29T11:27:41.567Z,8.00
2018-11-29T11:30:17.553Z,7.10
2018-11-29T11:32:46.817Z,7.90
2018-11-29T11:35:15.004Z,7.00
2018-11-29T11:37:43.268Z,6.30
2018-11-29T11:40:12.541Z,6.80
2018-11-29T11:42:40.729Z,6.30
2018-11-29T11:45:13.017Z,5.90
2018-11-29T11:47:41.173Z,5.77
2018-11-29T11:50:15.286Z,8.03
2018-11-29T11:52:43.483Z,5.83
2018-11-29T11:55:18.706Z,6.60
2018-11-29T11:57:40.465Z,6.80
2018-11-29T12:00:18.046Z,6.33
2018-11-29T12:02:46.784Z,7.75
2018-11-29T12:29:57.892Z,5.57
2018-11-29T12:37:21.090Z,5.77
2018-11-29T12:39:49.302Z,5.80
2018-11-29T12:42:17.490Z,6.33
2018-11-29T12:44:45.682Z,5.23
2018-11-29T12:47:13.877Z,5.00
2018-11-29T12:49:42.062Z,5.27
2018-11-29T12:52:10.267Z,6.10
2018-11-29T12:54:38.838Z,5.80
2018-11-29T12:57:07.093Z,7.43
2018-11-29T12:59:35.262Z,7.33
2018-11-29T13:02:03.461Z,7.00
2018-11-29T13:04:32.285Z,6.60
2018-11-29T13:06:59.846Z,6.97
2018-11-29T13:09:28.025Z,6.63
2018-11-29T13:11:56.213Z,7.00
2018-11-29T13:14:24.412Z,7.60
2018-11-29T13:16:52.597Z,6.83
2018-11-29T13:19:20.784Z,7.13
2018-11-29T13:21:48.974Z,7.10
2018-11-29T13:24:17.150Z,7.67
2018-11-29T13:26:45.347Z,7.17
2018-11-29T13:29:13.559Z,7.70
2018-11-29T13:31:41.746Z,7.93
2018-11-29T13:34:10.002Z,7.23
2018-11-29T13:36:38.199Z,8.37
2018-11-29T13:39:09.291Z,9.17
2018-11-29T13:41:36.817Z,8.45
2018-11-29T13:44:05.134Z,7.50
2018-11-29T13:46:33.326Z,6.87
2018-11-29T13:49:01.514Z,7.07
2018-11-29T13:51:29.716Z,8.20
2018-11-29T13:53:57.919Z,8.73
2018-11-29T13:56:26.156Z,8.50
2018-11-29T13:58:54.375Z,8.00
2018-11-29T14:01:22.527Z,8.43
2018-11-29T14:03:50.734Z,8.20
2018-11-29T14:06:18.921Z,8.60
2018-11-29T14:08:47.122Z,8.55
2018-11-29T14:11:15.342Z,9.30
2018-11-29T14:13:43.635Z,9.57
2018-11-29T14:16:11.845Z,8.38
2018-11-29T14:18:40.069Z,8.70
2018-11-29T14:21:08.278Z,10.20
2018-11-29T14:23:36.469Z,8.85
2018-11-29T14:26:04.742Z,10.68
2018-11-29T14:28:32.941Z,9.50
2018-11-29T14:31:01.139Z,8.77
2018-11-29T14:33:29.338Z,8.55
2018-11-29T14:35:57.536Z,10.88
2018-11-29T14:38:25.731Z,10.55
2018-11-29T14:40:53.954Z,11.22
2018-11-29T14:43:22.136Z,10.08
2018-11-29T14:45:50.348Z,10.70
2018-11-29T14:48:18.575Z,9.75
2018-11-29T14:50:47.084Z,11.70
2018-11-29T14:53:15.282Z,13.50
2018-11-29T14:55:43.695Z,13.93
2018-11-29T14:58:13.094Z,14.20
2018-11-29T15:00:41.374Z,14.05
2018-11-29T15:03:12.181Z,11.65
2018-11-29T15:05:40.387Z,12.78
2018-11-29T15:08:09.482Z,11.68
2018-11-29T15:10:38.161Z,11.35
2018-11-29T15:13:07.854Z,11.93
2018-11-29T15:15:36.297Z,14.05
2018-11-29T15:18:11.153Z,13.78
2018-11-29T15:20:41.737Z,14.00
2018-11-29T15:23:11.073Z,14.05
2018-11-29T15:25:39.385Z,13.90
2018-11-29T15:28:07.640Z,13.38
2018-11-29T15:30:35.922Z,15.05
2018-11-29T15:33:04.188Z,15.15
2018-11-29T15:35:32.446Z,12.93
2018-11-29T15:38:00.677Z,14.38
2018-11-29T15:40:28.862Z,12.95
2018-11-29T15:42:57.250Z,13.35
2018-11-29T15:45:26.305Z,13.90
2018-11-29T15:47:54.489Z,14.65
2018-11-29T15:50:22.702Z,13.08
2018-11-29T15:52:51.107Z,13.65
2018-11-29T15:55:20.241Z,14.40
2018-11-29T15:57:52.590Z,13.28
2018-11-29T16:00:29.699Z,14.15
2018-11-29T16:03:01.127Z,14.15
2018-11-29T16:05:29.374Z,11.75
2018-11-29T16:07:57.699Z,12.98
2018-11-29T16:10:26.873Z,13.45
2018-11-29T16:12:55.205Z,13.85
2018-11-29T16:15:23.413Z,14.68
2018-11-29T16:17:52.498Z,13.83
2018-11-29T16:20:25.110Z,13.28
2018-11-29T16:22:53.525Z,14.53
2018-11-29T16:25:21.942Z,14.53
2018-11-29T16:27:50.147Z,14.58
2018-11-29T16:30:24.478Z,14.50
2018-11-29T16:32:52.907Z,16.30
2018-11-29T16:35:21.105Z,15.43
2018-11-29T16:37:49.297Z,15.40
2018-11-29T16:40:17.552Z,14.73
2018-11-29T16:42:45.706Z,14.63
2018-11-29T16:45:14.047Z,15.23
2018-11-29T16:47:42.573Z,15.03
2018-11-29T16:50:14.807Z,14.25
2018-11-29T16:52:43.056Z,15.78
2018-11-29T16:55:11.945Z,14.90
2018-11-29T16:57:42.248Z,14.85
2018-11-29T17:00:12.873Z,15.32
2018-11-29T17:02:41.114Z,16.30
2018-11-29T17:05:10.814Z,14.33
2018-11-29T17:07:39.057Z,17.77
2018-11-29T17:10:09.348Z,16.45
2018-11-29T17:12:37.573Z,15.90
2018-11-29T17:15:09.564Z,13.98
2018-11-29T17:17:37.796Z,13.38
2018-11-29T17:20:11.681Z,16.35
2018-11-29T17:22:39.940Z,15.13
2018-11-29T17:25:11.285Z,17.77
2018-11-29T17:27:39.634Z,14.85
2018-11-29T17:30:19.574Z,16.35
2018-11-29T17:32:48.228Z,15.65
2018-11-29T17:35:16.437Z,16.05
2018-11-29T17:37:44.638Z,15.72
2018-11-29T17:40:14.827Z,17.27
2018-11-29T17:42:43.175Z,17.45
2018-11-29T17:45:12.597Z,19.02
2018-11-29T17:47:41.105Z,17.05
2018-11-29T17:50:15.928Z,16.73
2018-11-29T17:52:44.161Z,17.15
2018-11-29T17:55:12.401Z,17.70
2018-11-29T17:57:40.873Z,15.72
2018-11-29T18:00:13.945Z,14.87
2018-11-29T18:02:42.177Z,16.97
2018-11-29T18:05:10.432Z,17.90
2018-11-29T18:07:38.662Z,16.60
2018-11-29T18:10:10.505Z,15.43
2018-11-29T18:12:38.743Z,15.70
2018-11-29T18:15:11.094Z,15.83
2018-11-29T18:17:39.318Z,16.80
2018-11-29T18:20:09.255Z,16.93
2018-11-29T18:22:37.487Z,17.23
2018-11-29T18:25:09.508Z,18.27
2018-11-29T18:27:38.002Z,16.65
2018-11-29T18:30:12.311Z,18.32
2018-11-29T18:32:40.637Z,16.65
2018-11-29T18:35:09.877Z,16.20
2018-11-29T18:37:38.170Z,17.85
2018-11-29T18:40:12.622Z,18.60
2018-11-29T18:42:40.826Z,16.67
2018-11-29T18:45:11.257Z,17.80
2018-11-29T18:47:39.869Z,18.48
2018-11-29T18:50:15.105Z,18.10
2018-11-29T18:52:43.333Z,19.48
2018-11-29T18:55:11.612Z,18.45
2018-11-29T18:57:40.016Z,18.35
2018-11-29T19:00:18.458Z,18.62
2018-11-29T19:02:47.505Z,18.92
2018-11-29T19:05:15.717Z,17.67
2018-11-29T19:07:44.092Z,17.57
2018-11-29T19:10:14.230Z,18.57
2018-11-29T19:12:43.968Z,17.85
2018-11-29T19:15:12.837Z,16.17
2018-11-29T19:17:41.068Z,18.73
2018-11-29T19:20:11.605Z,17.05
2018-11-29T19:22:39.828Z,17.10
2018-11-29T19:25:14.918Z,16.87
2018-11-29T19:27:43.158Z,17.52
2018-11-29T19:30:14.841Z,15.58
2018-11-29T19:32:43.218Z,17.35
2018-11-29T19:35:11.757Z,18.02
2018-11-29T19:37:39.996Z,17.00
2018-11-29T19:40:11.198Z,17.75
2018-11-29T19:42:39.460Z,16.52
2018-11-29T19:45:09.176Z,19.00
2018-11-29T19:47:37.389Z,19.67
2018-11-29T19:50:08.915Z,16.50
2018-11-29T19:52:37.169Z,17.82
2018-11-29T19:55:06.486Z,17.60
2018-11-29T19:57:35.016Z,17.45
2018-11-29T20:00:03.321Z,19.02
2018-11-29T20:02:31.561Z,17.12
2018-11-29T20:04:59.799Z,17.30
2018-11-29T20:07:27.969Z,18.40
2018-11-29T20:09:56.148Z,17.75
2018-11-29T20:12:24.361Z,18.20
2018-11-29T20:14:52.683Z,17.07
2018-11-29T20:17:21.142Z,17.42
2018-11-29T20:19:49.733Z,17.42
2018-11-29T20:22:18.142Z,17.80
2018-11-29T20:24:46.349Z,18.02
2018-11-29T20:27:14.553Z,16.73
2018-11-29T20:29:42.766Z,15.88
2018-11-29T20:32:11.026Z,16.67
2018-11-29T20:34:39.234Z,17.00
2018-11-29T20:37:07.435Z,17.98
2018-11-29T20:39:35.630Z,18.35
2018-11-29T20:42:03.847Z,17.30
2018-11-29T20:44:32.082Z,16.70
2018-11-29T20:47:00.383Z,18.17
2018-11-29T20:49:28.579Z,16.35
2018-11-29T20:51:56.813Z,16.95
2018-11-29T20:54:25.083Z,16.82
2018-11-29T20:56:53.249Z,18.20
2018-11-29T20:59:21.432Z,17.40
2018-11-29T21:01:49.632Z,17.20
2018-11-29T21:04:17.845Z,18.17
2018-11-29T21:06:46.056Z,17.57
2018-11-29T21:09:14.318Z,21.37
2018-11-29T21:11:47.619Z,17.87
2018-11-29T21:14:10.733Z,18.40
2018-11-29T21:16:38.917Z,18.27
2018-11-29T21:19:07.094Z,15.75
2018-11-29T21:21:35.262Z,16.82
2018-11-29T21:24:03.435Z,16.40
2018-11-29T21:26:31.629Z,17.05
2018-11-29T21:28:59.799Z,17.27
2018-11-29T21:31:27.989Z,16.12
2018-11-29T21:33:56.171Z,16.60
2018-11-29T21:36:24.341Z,16.23
2018-11-29T21:38:52.534Z,17.50
2018-11-29T21:41:20.725Z,15.55
2018-11-29T21:43:48.900Z,15.93
2018-11-29T21:46:17.096Z,16.62
2018-11-29T21:48:45.265Z,16.05
2018-11-29T21:51:13.432Z,16.67
2018-11-29T21:53:41.602Z,15.83
2018-11-29T21:56:09.799Z,15.23
2018-11-29T21:58:37.956Z,16.73
2018-11-29T22:01:06.160Z,17.32
2018-11-29T22:03:34.340Z,15.43
2018-11-29T22:06:02.510Z,16.17
2018-11-29T22:08:30.689Z,16.00
2018-11-29T22:10:58.861Z,15.70
2018-11-29T22:13:27.029Z,17.17
2018-11-29T22:15:55.207Z,16.30
2018-11-29T22:18:24.572Z,15.78
2018-11-29T22:20:56.717Z,15.85
2018-11-29T22:23:24.929Z,18.65
2018-11-29T22:25:53.893Z,17.70
2018-11-29T22:28:22.064Z,16.12
2018-11-29T22:30:50.242Z,17.02
2018-11-29T22:33:18.420Z,17.67
2018-11-29T22:35:46.593Z,16.07
2018-11-29T22:38:14.778Z,15.72
2018-11-29T22:40:42.935Z,15.50
2018-11-29T22:43:11.101Z,16.00
2018-11-29T22:45:39.293Z,17.57
2018-11-29T22:48:07.469Z,15.65
2018-11-29T22:50:35.665Z,15.68
2018-11-29T22:53:03.824Z,14.30
2018-11-29T22:55:31.997Z,16.12
2018-11-29T22:58:00.162Z,16.87
2018-11-29T23:00:33.897Z,16.90
2018-11-29T23:03:02.094Z,16.15
2018-11-29T23:05:30.312Z,17.17
2018-11-29T23:07:58.533Z,17.00
2018-11-29T23:10:26.740Z,17.30
2018-11-29T23:12:54.954Z,15.48
2018-11-29T23:15:23.178Z,15.25
2018-11-29T23:17:51.381Z,16.30
2018-11-29T23:22:54.134Z,17.23
2018-11-29T23:25:22.349Z,15.72
2018-11-29T23:27:50.578Z,16.90
2018-11-29T23:30:19.000Z,15.43
2018-11-29T23:32:47.201Z,16.40
2018-11-29T23:35:15.750Z,15.83
2018-11-29T23:37:43.987Z,15.83
2018-11-29T23:40:13.765Z,15.43
2018-11-29T23:42:42.981Z,15.85
2018-11-29T23:45:12.175Z,15.58
2018-11-29T23:47:40.425Z,17.00
2018-11-29T23:50:16.396Z,16.48
2018-11-29T23:52:44.638Z,16.73
2018-11-29T23:55:15.184Z,19.77
2018-11-29T23:57:43.421Z,15.45
